Pecos, New Mexico
Current Conditions -  °F | °C
As of 10:53 AM on Monday 26 Jan 2015 (Local Time) from KSAF Reporting Station
Clear Clear  
Wind Chill: 38°   Ceiling: Unl
Heat Index: 46°   Visibility: 10mi
Dew Point: 23°   Wind: 20mph
Humidity: 40%   Direction: 360°N
Pressure: 30.38"   Gusts: 26mph
Location:  35.57°N, 105.68°W
Report Text: KSAF 261753Z 36017G23KT 10SM CLR 08/M05 A3038 RMK AO2 SLP263 T00781050 10078 21022 51004
Loading
Personal Weather Stations






























Interactive Weather Map New forecast layout! Learn more

10-Day Weather Forecast

Advertisements
Track Severe Weather on mobile